sensor_id;sensor_type;location;lat;lon;timestamp;temperature;humidity
25192;DHT22;13143;50.924;5.320;2023-12-20T00:00:36;9.40;99.90
25192;DHT22;13143;50.924;5.320;2023-12-20T00:03:03;9.40;99.90
25192;DHT22;13143;50.924;5.320;2023-12-20T00:05:29;9.30;99.90
25192;DHT22;13143;50.924;5.320;2023-12-20T00:07:57;9.30;99.90
25192;DHT22;13143;50.924;5.320;2023-12-20T00:10:23;9.30;99.90
25192;DHT22;13143;50.924;5.320;2023-12-20T00:12:49;9.30;99.90
25192;DHT22;13143;50.924;5.320;2023-12-20T00:15:14;9.30;99.90
25192;DHT22;13143;50.924;5.320;2023-12-20T00:17:40;9.30;99.90
25192;DHT22;13143;50.924;5.320;2023-12-20T00:20:06;9.30;99.90
25192;DHT22;13143;50.924;5.320;2023-12-20T00:22:32;9.20;99.90
25192;DHT22;13143;50.924;5.320;2023-12-20T00:24:58;9.20;99.90
25192;DHT22;13143;50.924;5.320;2023-12-20T00:27:23;9.20;99.90
25192;DHT22;13143;50.924;5.320;2023-12-20T00:29:49;9.20;99.90
25192;DHT22;13143;50.924;5.320;2023-12-20T00:32:16;9.20;99.90
25192;DHT22;13143;50.924;5.320;2023-12-20T00:34:42;9.20;99.90
25192;DHT22;13143;50.924;5.320;2023-12-20T00:37:08;9.20;99.90
25192;DHT22;13143;50.924;5.320;2023-12-20T00:39:34;9.10;99.90
25192;DHT22;13143;50.924;5.320;2023-12-20T00:42:00;9.20;99.90
25192;DHT22;13143;50.924;5.320;2023-12-20T00:44:25;9.10;99.90
25192;DHT22;13143;50.924;5.320;2023-12-20T00:46:51;9.10;99.90
25192;DHT22;13143;50.924;5.320;2023-12-20T00:49:17;9.10;99.90
25192;DHT22;13143;50.924;5.320;2023-12-20T00:51:43;9.00;99.90
25192;DHT22;13143;50.924;5.320;2023-12-20T00:54:09;9.00;99.90
25192;DHT22;13143;50.924;5.320;2023-12-20T00:56:35;9.00;99.90
25192;DHT22;13143;50.924;5.320;2023-12-20T00:59:00;9.00;99.90
25192;DHT22;13143;50.924;5.320;2023-12-20T01:01:26;9.00;99.90
25192;DHT22;13143;50.924;5.320;2023-12-20T01:03:52;9.00;99.90
25192;DHT22;13143;50.924;5.320;2023-12-20T01:06:18;9.00;99.90
25192;DHT22;13143;50.924;5.320;2023-12-20T01:08:44;9.00;99.90
25192;DHT22;13143;50.924;5.320;2023-12-20T01:11:10;8.90;99.90
25192;DHT22;13143;50.924;5.320;2023-12-20T01:13:36;8.90;99.90
25192;DHT22;13143;50.924;5.320;2023-12-20T01:16:02;8.90;99.90
25192;DHT22;13143;50.924;5.320;2023-12-20T01:18:28;8.90;99.90
25192;DHT22;13143;50.924;5.320;2023-12-20T01:20:53;8.90;99.90
25192;DHT22;13143;50.924;5.320;2023-12-20T01:23:19;8.90;99.90
25192;DHT22;13143;50.924;5.320;2023-12-20T01:25:45;8.90;99.90
25192;DHT22;13143;50.924;5.320;2023-12-20T01:28:10;8.90;99.90
25192;DHT22;13143;50.924;5.320;2023-12-20T01:30:36;8.80;99.90
25192;DHT22;13143;50.924;5.320;2023-12-20T01:33:02;8.80;99.90
25192;DHT22;13143;50.924;5.320;2023-12-20T01:35:28;8.80;99.90
25192;DHT22;13143;50.924;5.320;2023-12-20T01:37:53;8.80;99.90
25192;DHT22;13143;50.924;5.320;2023-12-20T01:40:22;8.80;99.90
25192;DHT22;13143;50.924;5.320;2023-12-20T01:42:58;8.80;99.90
25192;DHT22;13143;50.924;5.320;2023-12-20T01:45:24;8.80;99.90
25192;DHT22;13143;50.924;5.320;2023-12-20T01:47:50;8.80;99.90
25192;DHT22;13143;50.924;5.320;2023-12-20T01:50:16;8.80;99.90
25192;DHT22;13143;50.924;5.320;2023-12-20T01:52:42;8.70;99.90
25192;DHT22;13143;50.924;5.320;2023-12-20T01:55:09;8.70;99.90
25192;DHT22;13143;50.924;5.320;2023-12-20T01:57:40;8.70;99.90
25192;DHT22;13143;50.924;5.320;2023-12-20T02:00:11;8.70;99.90
25192;DHT22;13143;50.924;5.320;2023-12-20T02:02:40;8.70;99.90
25192;DHT22;13143;50.924;5.320;2023-12-20T02:05:07;8.70;99.90
25192;DHT22;13143;50.924;5.320;2023-12-20T02:07:32;8.70;99.90
25192;DHT22;13143;50.924;5.320;2023-12-20T02:10:03;8.60;99.90
25192;DHT22;13143;50.924;5.320;2023-12-20T02:12:32;8.60;99.90
25192;DHT22;13143;50.924;5.320;2023-12-20T02:14:57;8.60;99.90
25192;DHT22;13143;50.924;5.320;2023-12-20T02:17:23;8.60;99.90
25192;DHT22;13143;50.924;5.320;2023-12-20T02:19:49;8.60;99.90
25192;DHT22;13143;50.924;5.320;2023-12-20T02:22:15;8.50;99.90
25192;DHT22;13143;50.924;5.320;2023-12-20T02:24:41;8.60;99.90
25192;DHT22;13143;50.924;5.320;2023-12-20T02:27:07;8.50;99.90
25192;DHT22;13143;50.924;5.320;2023-12-20T02:29:34;8.50;99.90
25192;DHT22;13143;50.924;5.320;2023-12-20T02:32:00;8.50;99.90
25192;DHT22;13143;50.924;5.320;2023-12-20T02:34:25;8.50;99.90
25192;DHT22;13143;50.924;5.320;2023-12-20T02:36:51;8.50;99.90
25192;DHT22;13143;50.924;5.320;2023-12-20T02:39:19;8.50;99.90
25192;DHT22;13143;50.924;5.320;2023-12-20T02:41:45;8.50;99.90
25192;DHT22;13143;50.924;5.320;2023-12-20T02:44:11;8.40;99.90
25192;DHT22;13143;50.924;5.320;2023-12-20T02:46:36;8.40;99.90
25192;DHT22;13143;50.924;5.320;2023-12-20T02:49:02;8.40;99.90
25192;DHT22;13143;50.924;5.320;2023-12-20T02:51:28;8.40;99.90
25192;DHT22;13143;50.924;5.320;2023-12-20T02:53:53;8.40;99.90
25192;DHT22;13143;50.924;5.320;2023-12-20T02:56:19;8.40;99.90
25192;DHT22;13143;50.924;5.320;2023-12-20T02:58:45;8.30;99.90
25192;DHT22;13143;50.924;5.320;2023-12-20T03:01:10;8.30;99.90
25192;DHT22;13143;50.924;5.320;2023-12-20T03:03:36;8.30;99.90
25192;DHT22;13143;50.924;5.320;2023-12-20T03:06:02;8.30;99.90
25192;DHT22;13143;50.924;5.320;2023-12-20T03:08:27;8.30;99.90
25192;DHT22;13143;50.924;5.320;2023-12-20T03:10:53;8.30;99.90
25192;DHT22;13143;50.924;5.320;2023-12-20T03:13:19;8.30;99.90
25192;DHT22;13143;50.924;5.320;2023-12-20T03:15:46;8.30;99.90
25192;DHT22;13143;50.924;5.320;2023-12-20T03:18:11;8.30;99.90
25192;DHT22;13143;50.924;5.320;2023-12-20T03:20:37;8.20;99.90
25192;DHT22;13143;50.924;5.320;2023-12-20T03:23:03;8.20;99.90
25192;DHT22;13143;50.924;5.320;2023-12-20T03:25:29;8.20;99.90
25192;DHT22;13143;50.924;5.320;2023-12-20T03:27:55;8.20;99.90
25192;DHT22;13143;50.924;5.320;2023-12-20T03:30:21;8.20;99.90
25192;DHT22;13143;50.924;5.320;2023-12-20T03:32:47;8.20;99.90
25192;DHT22;13143;50.924;5.320;2023-12-20T03:35:13;8.10;99.90
25192;DHT22;13143;50.924;5.320;2023-12-20T03:37:39;8.10;99.90
25192;DHT22;13143;50.924;5.320;2023-12-20T03:40:05;8.10;99.90
25192;DHT22;13143;50.924;5.320;2023-12-20T03:42:30;8.10;99.90
25192;DHT22;13143;50.924;5.320;2023-12-20T03:44:56;8.10;99.90
25192;DHT22;13143;50.924;5.320;2023-12-20T03:47:22;8.10;99.90
25192;DHT22;13143;50.924;5.320;2023-12-20T03:49:48;8.10;99.90
25192;DHT22;13143;50.924;5.320;2023-12-20T03:52:13;8.10;99.90
25192;DHT22;13143;50.924;5.320;2023-12-20T03:54:39;8.10;99.90
25192;DHT22;13143;50.924;5.320;2023-12-20T03:57:08;8.10;99.90
25192;DHT22;13143;50.924;5.320;2023-12-20T03:59:37;8.10;99.90
25192;DHT22;13143;50.924;5.320;2023-12-20T04:02:03;8.00;99.90
25192;DHT22;13143;50.924;5.320;2023-12-20T04:04:29;8.00;99.90
25192;DHT22;13143;50.924;5.320;2023-12-20T04:06:55;8.00;99.90
25192;DHT22;13143;50.924;5.320;2023-12-20T04:09:21;8.00;99.90
25192;DHT22;13143;50.924;5.320;2023-12-20T04:11:46;8.00;99.90
25192;DHT22;13143;50.924;5.320;2023-12-20T04:14:12;8.00;99.90
25192;DHT22;13143;50.924;5.320;2023-12-20T04:16:38;8.00;99.90
25192;DHT22;13143;50.924;5.320;2023-12-20T04:19:04;8.00;99.90
25192;DHT22;13143;50.924;5.320;2023-12-20T04:21:30;8.00;99.90
25192;DHT22;13143;50.924;5.320;2023-12-20T04:23:56;8.00;99.90
25192;DHT22;13143;50.924;5.320;2023-12-20T04:26:22;8.00;99.90
25192;DHT22;13143;50.924;5.320;2023-12-20T04:28:48;8.00;99.90
25192;DHT22;13143;50.924;5.320;2023-12-20T04:31:14;8.00;99.90
25192;DHT22;13143;50.924;5.320;2023-12-20T04:33:39;8.00;99.90
25192;DHT22;13143;50.924;5.320;2023-12-20T04:36:05;8.00;99.90
25192;DHT22;13143;50.924;5.320;2023-12-20T04:38:31;8.00;99.90
25192;DHT22;13143;50.924;5.320;2023-12-20T04:40:56;7.90;99.90
25192;DHT22;13143;50.924;5.320;2023-12-20T04:43:22;8.00;99.90
25192;DHT22;13143;50.924;5.320;2023-12-20T04:45:48;8.00;99.90
25192;DHT22;13143;50.924;5.320;2023-12-20T04:48:13;7.90;99.90
25192;DHT22;13143;50.924;5.320;2023-12-20T04:50:39;7.90;99.90
25192;DHT22;13143;50.924;5.320;2023-12-20T04:53:05;7.90;99.90
25192;DHT22;13143;50.924;5.320;2023-12-20T04:55:30;7.90;99.90
25192;DHT22;13143;50.924;5.320;2023-12-20T04:57:56;7.90;99.90
25192;DHT22;13143;50.924;5.320;2023-12-20T05:00:22;7.90;99.90
25192;DHT22;13143;50.924;5.320;2023-12-20T05:02:48;7.90;99.90
25192;DHT22;13143;50.924;5.320;2023-12-20T05:05:13;7.90;99.90
25192;DHT22;13143;50.924;5.320;2023-12-20T05:07:40;7.90;99.90
25192;DHT22;13143;50.924;5.320;2023-12-20T05:10:06;7.90;99.90
25192;DHT22;13143;50.924;5.320;2023-12-20T05:12:34;7.90;99.90
25192;DHT22;13143;50.924;5.320;2023-12-20T05:15:00;7.90;99.90
25192;DHT22;13143;50.924;5.320;2023-12-20T05:17:25;7.90;99.90
25192;DHT22;13143;50.924;5.320;2023-12-20T05:19:51;7.90;99.90
25192;DHT22;13143;50.924;5.320;2023-12-20T05:22:17;7.90;99.90
25192;DHT22;13143;50.924;5.320;2023-12-20T05:24:43;7.90;99.90
25192;DHT22;13143;50.924;5.320;2023-12-20T05:27:08;7.90;99.90
25192;DHT22;13143;50.924;5.320;2023-12-20T05:29:34;7.90;99.90
25192;DHT22;13143;50.924;5.320;2023-12-20T05:32:00;7.90;99.90
25192;DHT22;13143;50.924;5.320;2023-12-20T05:34:25;7.90;99.90
25192;DHT22;13143;50.924;5.320;2023-12-20T05:36:51;7.90;99.90
25192;DHT22;13143;50.924;5.320;2023-12-20T05:39:17;7.90;99.90
25192;DHT22;13143;50.924;5.320;2023-12-20T05:41:42;7.90;99.90
25192;DHT22;13143;50.924;5.320;2023-12-20T05:44:08;7.80;99.90
25192;DHT22;13143;50.924;5.320;2023-12-20T05:46:34;7.80;99.90
25192;DHT22;13143;50.924;5.320;2023-12-20T05:49:00;7.80;99.90
25192;DHT22;13143;50.924;5.320;2023-12-20T05:51:25;7.90;99.90
25192;DHT22;13143;50.924;5.320;2023-12-20T05:53:51;7.80;99.90
25192;DHT22;13143;50.924;5.320;2023-12-20T05:56:17;7.80;99.90
25192;DHT22;13143;50.924;5.320;2023-12-20T05:58:42;7.80;99.90
25192;DHT22;13143;50.924;5.320;2023-12-20T06:01:09;7.80;99.90
25192;DHT22;13143;50.924;5.320;2023-12-20T06:03:34;7.80;99.90
25192;DHT22;13143;50.924;5.320;2023-12-20T06:06:06;7.80;99.90
25192;DHT22;13143;50.924;5.320;2023-12-20T06:08:32;7.80;99.90
25192;DHT22;13143;50.924;5.320;2023-12-20T06:10:57;7.80;99.90
25192;DHT22;13143;50.924;5.320;2023-12-20T06:13:23;7.70;99.90
25192;DHT22;13143;50.924;5.320;2023-12-20T06:15:49;7.70;99.90
25192;DHT22;13143;50.924;5.320;2023-12-20T06:18:14;7.70;99.90
25192;DHT22;13143;50.924;5.320;2023-12-20T06:20:40;7.70;99.90
25192;DHT22;13143;50.924;5.320;2023-12-20T06:23:06;7.70;99.90
25192;DHT22;13143;50.924;5.320;2023-12-20T06:25:31;7.70;99.90
25192;DHT22;13143;50.924;5.320;2023-12-20T06:27:57;7.60;99.90
25192;DHT22;13143;50.924;5.320;2023-12-20T06:30:23;7.70;99.90
25192;DHT22;13143;50.924;5.320;2023-12-20T06:32:50;7.70;99.90
25192;DHT22;13143;50.924;5.320;2023-12-20T06:35:16;7.70;99.90
25192;DHT22;13143;50.924;5.320;2023-12-20T06:37:41;7.70;99.90
25192;DHT22;13143;50.924;5.320;2023-12-20T06:40:10;7.70;99.90
25192;DHT22;13143;50.924;5.320;2023-12-20T06:42:36;7.70;99.90
25192;DHT22;13143;50.924;5.320;2023-12-20T06:45:02;7.60;99.90
25192;DHT22;13143;50.924;5.320;2023-12-20T06:47:28;7.60;99.90
25192;DHT22;13143;50.924;5.320;2023-12-20T06:49:53;7.60;99.90
25192;DHT22;13143;50.924;5.320;2023-12-20T06:52:19;7.60;99.90
25192;DHT22;13143;50.924;5.320;2023-12-20T06:54:45;7.60;99.90
25192;DHT22;13143;50.924;5.320;2023-12-20T06:57:10;7.60;99.90
25192;DHT22;13143;50.924;5.320;2023-12-20T06:59:40;7.60;99.90
25192;DHT22;13143;50.924;5.320;2023-12-20T07:02:06;7.60;99.90
25192;DHT22;13143;50.924;5.320;2023-12-20T07:04:32;7.60;99.90
25192;DHT22;13143;50.924;5.320;2023-12-20T07:06:58;7.60;99.90
25192;DHT22;13143;50.924;5.320;2023-12-20T07:09:26;7.60;99.90
25192;DHT22;13143;50.924;5.320;2023-12-20T07:11:52;7.60;99.90
25192;DHT22;13143;50.924;5.320;2023-12-20T07:14:18;7.60;99.90
25192;DHT22;13143;50.924;5.320;2023-12-20T07:16:44;7.60;99.90
25192;DHT22;13143;50.924;5.320;2023-12-20T07:19:09;7.60;99.90
25192;DHT22;13143;50.924;5.320;2023-12-20T07:21:35;7.60;99.90
25192;DHT22;13143;50.924;5.320;2023-12-20T07:24:01;7.60;99.90
25192;DHT22;13143;50.924;5.320;2023-12-20T07:26:27;7.60;99.90
25192;DHT22;13143;50.924;5.320;2023-12-20T07:28:52;7.60;99.90
25192;DHT22;13143;50.924;5.320;2023-12-20T07:31:18;7.60;99.90
25192;DHT22;13143;50.924;5.320;2023-12-20T07:33:44;7.60;99.90
25192;DHT22;13143;50.924;5.320;2023-12-20T07:36:10;7.50;99.90
25192;DHT22;13143;50.924;5.320;2023-12-20T07:38:35;7.60;99.90
25192;DHT22;13143;50.924;5.320;2023-12-20T07:41:01;7.60;99.90
25192;DHT22;13143;50.924;5.320;2023-12-20T07:43:27;7.60;99.90
25192;DHT22;13143;50.924;5.320;2023-12-20T07:45:52;7.50;99.90
25192;DHT22;13143;50.924;5.320;2023-12-20T07:48:18;7.50;99.90
25192;DHT22;13143;50.924;5.320;2023-12-20T07:50:44;7.50;99.90
25192;DHT22;13143;50.924;5.320;2023-12-20T07:53:09;7.50;99.90
25192;DHT22;13143;50.924;5.320;2023-12-20T07:55:35;7.50;99.90
25192;DHT22;13143;50.924;5.320;2023-12-20T07:58:01;7.50;99.90
25192;DHT22;13143;50.924;5.320;2023-12-20T08:00:27;7.50;99.90
25192;DHT22;13143;50.924;5.320;2023-12-20T08:02:53;7.50;99.90
25192;DHT22;13143;50.924;5.320;2023-12-20T08:05:18;7.50;99.90
25192;DHT22;13143;50.924;5.320;2023-12-20T08:07:44;7.50;99.90
25192;DHT22;13143;50.924;5.320;2023-12-20T08:10:10;7.50;99.90
25192;DHT22;13143;50.924;5.320;2023-12-20T08:12:36;7.40;99.90
25192;DHT22;13143;50.924;5.320;2023-12-20T08:15:02;7.40;99.90
25192;DHT22;13143;50.924;5.320;2023-12-20T08:17:29;7.40;99.90
25192;DHT22;13143;50.924;5.320;2023-12-20T08:19:56;7.40;99.90
25192;DHT22;13143;50.924;5.320;2023-12-20T08:22:21;7.40;99.90
25192;DHT22;13143;50.924;5.320;2023-12-20T08:24:47;7.40;99.90
25192;DHT22;13143;50.924;5.320;2023-12-20T08:27:13;7.40;99.90
25192;DHT22;13143;50.924;5.320;2023-12-20T08:29:39;7.40;99.90
25192;DHT22;13143;50.924;5.320;2023-12-20T08:32:05;7.40;99.90
25192;DHT22;13143;50.924;5.320;2023-12-20T08:34:30;7.40;99.90
25192;DHT22;13143;50.924;5.320;2023-12-20T08:36:56;7.40;99.90
25192;DHT22;13143;50.924;5.320;2023-12-20T08:39:22;7.40;99.90
25192;DHT22;13143;50.924;5.320;2023-12-20T08:41:48;7.40;99.90
25192;DHT22;13143;50.924;5.320;2023-12-20T08:44:13;7.40;99.90
25192;DHT22;13143;50.924;5.320;2023-12-20T08:46:39;7.40;99.90
25192;DHT22;13143;50.924;5.320;2023-12-20T08:49:05;7.40;99.90
25192;DHT22;13143;50.924;5.320;2023-12-20T08:51:31;7.40;99.90
25192;DHT22;13143;50.924;5.320;2023-12-20T08:53:56;7.40;99.90
25192;DHT22;13143;50.924;5.320;2023-12-20T08:56:22;7.40;99.90
25192;DHT22;13143;50.924;5.320;2023-12-20T08:58:48;7.40;99.90
25192;DHT22;13143;50.924;5.320;2023-12-20T09:01:14;7.40;99.90
25192;DHT22;13143;50.924;5.320;2023-12-20T09:03:40;7.40;99.90
25192;DHT22;13143;50.924;5.320;2023-12-20T09:06:06;7.40;99.90
25192;DHT22;13143;50.924;5.320;2023-12-20T09:08:32;7.40;99.90
25192;DHT22;13143;50.924;5.320;2023-12-20T09:10:58;7.40;99.90
25192;DHT22;13143;50.924;5.320;2023-12-20T09:13:24;7.40;99.90
25192;DHT22;13143;50.924;5.320;2023-12-20T09:15:57;7.40;99.90
25192;DHT22;13143;50.924;5.320;2023-12-20T09:18:23;7.40;99.90
25192;DHT22;13143;50.924;5.320;2023-12-20T09:20:49;7.40;99.90
25192;DHT22;13143;50.924;5.320;2023-12-20T09:23:15;7.40;99.90
25192;DHT22;13143;50.924;5.320;2023-12-20T09:25:40;7.40;99.90
25192;DHT22;13143;50.924;5.320;2023-12-20T09:28:06;7.40;99.90
25192;DHT22;13143;50.924;5.320;2023-12-20T09:30:32;7.40;99.90
25192;DHT22;13143;50.924;5.320;2023-12-20T09:32:58;7.40;99.90
25192;DHT22;13143;50.924;5.320;2023-12-20T09:35:23;7.50;99.90
25192;DHT22;13143;50.924;5.320;2023-12-20T09:37:49;7.50;99.90
25192;DHT22;13143;50.924;5.320;2023-12-20T09:40:18;7.40;99.90
25192;DHT22;13143;50.924;5.320;2023-12-20T09:45:27;7.50;99.90
25192;DHT22;13143;50.924;5.320;2023-12-20T09:47:54;7.50;99.90
25192;DHT22;13143;50.924;5.320;2023-12-20T09:50:22;7.50;99.90
25192;DHT22;13143;50.924;5.320;2023-12-20T09:52:52;7.50;99.90
25192;DHT22;13143;50.924;5.320;2023-12-20T09:55:18;7.50;99.90
25192;DHT22;13143;50.924;5.320;2023-12-20T09:57:48;7.50;99.90
25192;DHT22;13143;50.924;5.320;2023-12-20T10:00:14;7.50;99.90
25192;DHT22;13143;50.924;5.320;2023-12-20T10:03:00;7.50;99.90
25192;DHT22;13143;50.924;5.320;2023-12-20T10:05:31;7.50;99.90
25192;DHT22;13143;50.924;5.320;2023-12-20T10:07:58;7.50;99.90
25192;DHT22;13143;50.924;5.320;2023-12-20T10:10:24;7.50;99.90
25192;DHT22;13143;50.924;5.320;2023-12-20T10:13:08;7.60;99.90
25192;DHT22;13143;50.924;5.320;2023-12-20T10:15:35;7.60;99.90
25192;DHT22;13143;50.924;5.320;2023-12-20T10:18:01;7.60;99.90
25192;DHT22;13143;50.924;5.320;2023-12-20T10:20:28;7.60;99.90
25192;DHT22;13143;50.924;5.320;2023-12-20T10:22:55;7.60;99.90
25192;DHT22;13143;50.924;5.320;2023-12-20T10:25:21;7.60;99.90
25192;DHT22;13143;50.924;5.320;2023-12-20T10:27:47;7.60;99.90
25192;DHT22;13143;50.924;5.320;2023-12-20T10:30:14;7.60;99.90
25192;DHT22;13143;50.924;5.320;2023-12-20T10:32:40;7.60;99.90
25192;DHT22;13143;50.924;5.320;2023-12-20T10:35:06;7.70;99.90
25192;DHT22;13143;50.924;5.320;2023-12-20T10:37:35;7.70;99.90
25192;DHT22;13143;50.924;5.320;2023-12-20T10:40:03;7.70;99.90
25192;DHT22;13143;50.924;5.320;2023-12-20T10:42:29;7.70;99.90
25192;DHT22;13143;50.924;5.320;2023-12-20T10:44:56;7.70;99.90
25192;DHT22;13143;50.924;5.320;2023-12-20T10:47:25;7.70;99.90
25192;DHT22;13143;50.924;5.320;2023-12-20T10:49:52;7.80;99.90
25192;DHT22;13143;50.924;5.320;2023-12-20T10:52:18;7.80;99.90
25192;DHT22;13143;50.924;5.320;2023-12-20T10:54:45;7.70;99.90
25192;DHT22;13143;50.924;5.320;2023-12-20T10:57:12;7.80;99.90
25192;DHT22;13143;50.924;5.320;2023-12-20T10:59:38;7.80;99.90
25192;DHT22;13143;50.924;5.320;2023-12-20T11:02:05;7.80;99.90
25192;DHT22;13143;50.924;5.320;2023-12-20T11:05:00;7.80;99.90
25192;DHT22;13143;50.924;5.320;2023-12-20T11:07:39;7.80;99.90
25192;DHT22;13143;50.924;5.320;2023-12-20T11:10:31;7.80;99.90
25192;DHT22;13143;50.924;5.320;2023-12-20T11:13:20;7.90;99.90
25192;DHT22;13143;50.924;5.320;2023-12-20T11:15:47;7.90;99.90
25192;DHT22;13143;50.924;5.320;2023-12-20T11:18:13;7.90;99.90
25192;DHT22;13143;50.924;5.320;2023-12-20T11:20:40;7.90;99.90
25192;DHT22;13143;50.924;5.320;2023-12-20T11:23:08;7.90;99.90
25192;DHT22;13143;50.924;5.320;2023-12-20T11:25:55;7.90;99.90
25192;DHT22;13143;50.924;5.320;2023-12-20T11:28:23;7.90;99.90
25192;DHT22;13143;50.924;5.320;2023-12-20T11:30:51;7.90;99.90
25192;DHT22;13143;50.924;5.320;2023-12-20T11:33:24;8.00;99.90
25192;DHT22;13143;50.924;5.320;2023-12-20T11:35:50;8.00;99.90
25192;DHT22;13143;50.924;5.320;2023-12-20T11:38:16;8.00;99.90
25192;DHT22;13143;50.924;5.320;2023-12-20T11:40:43;8.00;99.90
25192;DHT22;13143;50.924;5.320;2023-12-20T11:43:09;8.00;99.90
25192;DHT22;13143;50.924;5.320;2023-12-20T11:45:35;8.10;99.90
25192;DHT22;13143;50.924;5.320;2023-12-20T11:48:04;8.10;99.90
25192;DHT22;13143;50.924;5.320;2023-12-20T11:50:30;8.10;99.90
25192;DHT22;13143;50.924;5.320;2023-12-20T11:52:56;8.10;99.90
25192;DHT22;13143;50.924;5.320;2023-12-20T11:55:23;8.10;99.90
25192;DHT22;13143;50.924;5.320;2023-12-20T11:57:50;8.10;99.90
25192;DHT22;13143;50.924;5.320;2023-12-20T12:00:16;8.10;99.90
25192;DHT22;13143;50.924;5.320;2023-12-20T12:02:43;8.10;99.90
25192;DHT22;13143;50.924;5.320;2023-12-20T12:05:08;8.10;99.90
25192;DHT22;13143;50.924;5.320;2023-12-20T12:07:35;8.10;99.90
25192;DHT22;13143;50.924;5.320;2023-12-20T12:10:01;8.20;99.90
25192;DHT22;13143;50.924;5.320;2023-12-20T12:12:29;8.10;99.90
25192;DHT22;13143;50.924;5.320;2023-12-20T12:14:55;8.20;99.90
25192;DHT22;13143;50.924;5.320;2023-12-20T12:17:23;8.20;99.90
25192;DHT22;13143;50.924;5.320;2023-12-20T12:19:48;8.20;99.90
25192;DHT22;13143;50.924;5.320;2023-12-20T12:22:15;8.20;99.90
25192;DHT22;13143;50.924;5.320;2023-12-20T12:24:43;8.20;99.90
25192;DHT22;13143;50.924;5.320;2023-12-20T12:27:10;8.20;99.90
25192;DHT22;13143;50.924;5.320;2023-12-20T12:29:36;8.20;99.90
25192;DHT22;13143;50.924;5.320;2023-12-20T12:32:06;8.20;99.90
25192;DHT22;13143;50.924;5.320;2023-12-20T12:34:33;8.20;99.90
25192;DHT22;13143;50.924;5.320;2023-12-20T12:37:00;8.20;99.90
25192;DHT22;13143;50.924;5.320;2023-12-20T12:39:25;8.20;99.90
25192;DHT22;13143;50.924;5.320;2023-12-20T12:41:52;8.30;99.90
25192;DHT22;13143;50.924;5.320;2023-12-20T12:44:18;8.30;99.90
25192;DHT22;13143;50.924;5.320;2023-12-20T12:46:45;8.30;99.90
25192;DHT22;13143;50.924;5.320;2023-12-20T12:49:11;8.30;99.90
25192;DHT22;13143;50.924;5.320;2023-12-20T12:51:37;8.30;99.90
25192;DHT22;13143;50.924;5.320;2023-12-20T12:54:03;8.30;99.90
25192;DHT22;13143;50.924;5.320;2023-12-20T12:56:29;8.30;99.90
25192;DHT22;13143;50.924;5.320;2023-12-20T12:58:55;8.40;99.90
25192;DHT22;13143;50.924;5.320;2023-12-20T13:01:21;8.30;99.90
25192;DHT22;13143;50.924;5.320;2023-12-20T13:03:46;8.40;99.90
25192;DHT22;13143;50.924;5.320;2023-12-20T13:06:12;8.40;99.90
25192;DHT22;13143;50.924;5.320;2023-12-20T13:08:38;8.40;99.90
25192;DHT22;13143;50.924;5.320;2023-12-20T13:11:04;8.40;99.90
25192;DHT22;13143;50.924;5.320;2023-12-20T13:13:31;8.40;99.90
25192;DHT22;13143;50.924;5.320;2023-12-20T13:15:56;8.40;99.90
25192;DHT22;13143;50.924;5.320;2023-12-20T13:18:23;8.40;99.90
25192;DHT22;13143;50.924;5.320;2023-12-20T13:20:49;8.40;99.90
25192;DHT22;13143;50.924;5.320;2023-12-20T13:23:15;8.40;99.90
25192;DHT22;13143;50.924;5.320;2023-12-20T13:25:43;8.40;99.90
25192;DHT22;13143;50.924;5.320;2023-12-20T13:28:11;8.50;99.90
25192;DHT22;13143;50.924;5.320;2023-12-20T13:30:37;8.50;99.90
25192;DHT22;13143;50.924;5.320;2023-12-20T13:33:04;8.50;99.90
25192;DHT22;13143;50.924;5.320;2023-12-20T13:35:30;8.50;99.90
25192;DHT22;13143;50.924;5.320;2023-12-20T13:37:57;8.50;99.90
25192;DHT22;13143;50.924;5.320;2023-12-20T13:40:23;8.50;99.90
25192;DHT22;13143;50.924;5.320;2023-12-20T13:42:49;8.50;99.90
25192;DHT22;13143;50.924;5.320;2023-12-20T13:45:15;8.50;99.90
25192;DHT22;13143;50.924;5.320;2023-12-20T13:47:42;8.50;99.90
25192;DHT22;13143;50.924;5.320;2023-12-20T13:50:08;8.50;99.90
25192;DHT22;13143;50.924;5.320;2023-12-20T13:52:33;8.60;99.90
25192;DHT22;13143;50.924;5.320;2023-12-20T13:54:59;8.60;99.90
25192;DHT22;13143;50.924;5.320;2023-12-20T13:57:25;8.60;99.90
25192;DHT22;13143;50.924;5.320;2023-12-20T13:59:50;8.60;99.90
25192;DHT22;13143;50.924;5.320;2023-12-20T14:02:16;8.60;99.90
25192;DHT22;13143;50.924;5.320;2023-12-20T14:04:42;8.60;99.90
25192;DHT22;13143;50.924;5.320;2023-12-20T14:07:08;8.60;99.90
25192;DHT22;13143;50.924;5.320;2023-12-20T14:09:35;8.60;99.90
25192;DHT22;13143;50.924;5.320;2023-12-20T14:12:01;8.60;99.90
25192;DHT22;13143;50.924;5.320;2023-12-20T14:14:26;8.70;99.90
25192;DHT22;13143;50.924;5.320;2023-12-20T14:16:52;8.60;99.90
25192;DHT22;13143;50.924;5.320;2023-12-20T14:19:18;8.70;99.90
25192;DHT22;13143;50.924;5.320;2023-12-20T14:21:43;8.70;99.90
25192;DHT22;13143;50.924;5.320;2023-12-20T14:24:15;8.70;99.90
25192;DHT22;13143;50.924;5.320;2023-12-20T14:26:41;8.70;99.90
25192;DHT22;13143;50.924;5.320;2023-12-20T14:29:07;8.70;99.90
25192;DHT22;13143;50.924;5.320;2023-12-20T14:31:33;8.70;99.90
25192;DHT22;13143;50.924;5.320;2023-12-20T14:33:59;8.70;99.90
25192;DHT22;13143;50.924;5.320;2023-12-20T14:36:26;8.70;99.90
25192;DHT22;13143;50.924;5.320;2023-12-20T14:38:52;8.70;99.90
25192;DHT22;13143;50.924;5.320;2023-12-20T14:41:18;8.70;99.90
25192;DHT22;13143;50.924;5.320;2023-12-20T14:43:44;8.70;99.90
25192;DHT22;13143;50.924;5.320;2023-12-20T14:46:10;8.70;99.90
25192;DHT22;13143;50.924;5.320;2023-12-20T14:48:36;8.70;99.90
25192;DHT22;13143;50.924;5.320;2023-12-20T14:51:01;8.80;99.90
25192;DHT22;13143;50.924;5.320;2023-12-20T14:53:27;8.80;99.90
25192;DHT22;13143;50.924;5.320;2023-12-20T14:55:53;8.80;99.90
25192;DHT22;13143;50.924;5.320;2023-12-20T14:58:19;8.80;99.90
25192;DHT22;13143;50.924;5.320;2023-12-20T15:00:44;8.80;99.90
25192;DHT22;13143;50.924;5.320;2023-12-20T15:03:10;8.80;99.90
25192;DHT22;13143;50.924;5.320;2023-12-20T15:05:36;8.80;99.90
25192;DHT22;13143;50.924;5.320;2023-12-20T15:08:02;8.80;99.90
25192;DHT22;13143;50.924;5.320;2023-12-20T15:10:28;8.80;99.90
25192;DHT22;13143;50.924;5.320;2023-12-20T15:12:54;8.80;99.90
25192;DHT22;13143;50.924;5.320;2023-12-20T15:15:21;8.80;99.90
25192;DHT22;13143;50.924;5.320;2023-12-20T15:17:47;8.80;99.90
25192;DHT22;13143;50.924;5.320;2023-12-20T15:20:13;8.80;99.90
25192;DHT22;13143;50.924;5.320;2023-12-20T15:22:39;8.80;99.90
25192;DHT22;13143;50.924;5.320;2023-12-20T15:25:07;8.80;99.90
25192;DHT22;13143;50.924;5.320;2023-12-20T15:27:34;8.80;99.90
25192;DHT22;13143;50.924;5.320;2023-12-20T15:30:05;8.80;99.90
25192;DHT22;13143;50.924;5.320;2023-12-20T15:32:31;8.80;99.90
25192;DHT22;13143;50.924;5.320;2023-12-20T15:34:58;8.90;99.90
25192;DHT22;13143;50.924;5.320;2023-12-20T15:37:23;8.90;99.90
25192;DHT22;13143;50.924;5.320;2023-12-20T15:39:52;8.90;99.90
25192;DHT22;13143;50.924;5.320;2023-12-20T15:42:17;8.90;99.90